createdAt,value
2019-03-18T00:00:40.057Z,99427.20
2019-03-18T00:03:09.389Z,99424.97
2019-03-18T00:05:38.493Z,99429.61
2019-03-18T00:08:07.628Z,99433.50
2019-03-18T00:10:37.212Z,99430.25
2019-03-18T00:13:06.454Z,99440.63
2019-03-18T00:15:35.853Z,99438.27
2019-03-18T00:18:05.070Z,99436.13
2019-03-18T00:20:34.499Z,99437.26
2019-03-18T00:23:03.683Z,99452.86
2019-03-18T00:25:32.819Z,99456.26
2019-03-18T00:28:02.008Z,99460.42
2019-03-18T00:30:31.226Z,99468.11
2019-03-18T00:33:03.091Z,99468.64
2019-03-18T00:35:31.417Z,99470.33
2019-03-18T00:38:00.683Z,99472.97
2019-03-18T00:40:29.901Z,99477.91
2019-03-18T00:42:59.004Z,99476.47
2019-03-18T00:45:28.217Z,99487.48
2019-03-18T00:47:57.527Z,99483.61
2019-03-18T00:50:26.894Z,99494.08
2019-03-18T00:52:56.976Z,99494.30
2019-03-18T00:55:26.113Z,99494.22
2019-03-18T00:57:55.270Z,99496.44
2019-03-18T01:00:24.736Z,99506.77
2019-03-18T01:02:53.931Z,99507.46
2019-03-18T01:05:23.223Z,99508.97
2019-03-18T01:07:52.480Z,99514.05
2019-03-18T01:10:21.679Z,99523.88
2019-03-18T01:12:50.915Z,99524.60
2019-03-18T01:15:27.921Z,99532.06
2019-03-18T01:17:50.885Z,99529.77
2019-03-18T01:20:20.164Z,99530.89
2019-03-18T01:22:49.287Z,99538.23
2019-03-18T01:25:18.504Z,99543.68
2019-03-18T01:27:47.664Z,99544.58
2019-03-18T01:30:16.890Z,99550.82
2019-03-18T01:32:46.189Z,99546.76
2019-03-18T01:35:15.430Z,99561.59
2019-03-18T01:37:44.646Z,99559.87
2019-03-18T01:40:16.805Z,99554.11
2019-03-18T01:42:46.053Z,99549.73
2019-03-18T01:45:15.273Z,99555.67
2019-03-18T01:47:44.466Z,99558.66
2019-03-18T01:50:16.593Z,99561.74
2019-03-18T01:52:45.889Z,99567.19
2019-03-18T01:55:15.106Z,99558.22
2019-03-18T01:57:44.383Z,99553.27
2019-03-18T02:00:15.052Z,99562.27
2019-03-18T02:02:44.266Z,99562.75
2019-03-18T02:05:13.457Z,99566.41
2019-03-18T02:07:42.665Z,99570.55
2019-03-18T02:10:16.116Z,99580.27
2019-03-18T02:12:45.374Z,99582.05
2019-03-18T02:15:15.686Z,99592.57
2019-03-18T02:17:44.961Z,99594.93
2019-03-18T02:20:19.557Z,99599.31
2019-03-18T02:22:48.444Z,99607.45
2019-03-18T02:25:17.574Z,99610.41
2019-03-18T02:27:46.799Z,99610.05
2019-03-18T02:30:19.359Z,99614.80
2019-03-18T02:32:48.512Z,99613.95
2019-03-18T02:35:17.752Z,99614.80
2019-03-18T02:37:46.916Z,99620.12
2019-03-18T02:40:16.085Z,99627.19
2019-03-18T02:42:45.425Z,99628.37
2019-03-18T02:45:14.611Z,99629.42
2019-03-18T02:47:43.823Z,99630.97
2019-03-18T02:50:14.459Z,99635.32
2019-03-18T02:52:43.671Z,99634.50
2019-03-18T02:55:12.869Z,99639.58
2019-03-18T02:57:42.049Z,99636.29
2019-03-18T03:00:15.127Z,99636.16
2019-03-18T03:02:44.329Z,99638.40
2019-03-18T03:05:14.388Z,99649.88
2019-03-18T03:07:43.562Z,99647.28
2019-03-18T03:10:13.993Z,99641.11
2019-03-18T03:12:43.277Z,99651.52
2019-03-18T03:15:16.273Z,99653.78
2019-03-18T03:17:45.482Z,99649.03
2019-03-18T03:20:14.733Z,99655.31
2019-03-18T03:22:43.927Z,99660.27
2019-03-18T03:25:13.140Z,99661.69
2019-03-18T03:27:42.646Z,99661.57
2019-03-18T03:30:13.761Z,99668.66
2019-03-18T03:32:42.955Z,99664.03
2019-03-18T03:35:12.492Z,99667.58
2019-03-18T03:37:41.632Z,99670.91
2019-03-18T03:40:12.222Z,99670.30
2019-03-18T03:42:41.745Z,99677.16
2019-03-18T03:45:17.542Z,99676.09
2019-03-18T03:47:46.760Z,99677.98
2019-03-18T03:50:16.335Z,99681.04
2019-03-18T03:52:45.525Z,99684.48
2019-03-18T03:55:15.043Z,99689.90
2019-03-18T03:57:44.771Z,99687.90
2019-03-18T04:00:15.706Z,99692.28
2019-03-18T04:02:44.906Z,99693.94
2019-03-18T04:05:14.333Z,99692.88
2019-03-18T04:07:43.635Z,99700.92
2019-03-18T04:10:14.241Z,99695.70
2019-03-18T04:12:43.486Z,99692.75
2019-03-18T04:15:13.750Z,99698.64
2019-03-18T04:17:42.961Z,99702.64
2019-03-18T04:20:14.549Z,99699.91
2019-03-18T04:22:43.843Z,99706.52
2019-03-18T04:25:13.358Z,99701.61
2019-03-18T04:27:42.745Z,99707.70
2019-03-18T04:30:13.830Z,99706.03
2019-03-18T04:32:43.046Z,99703.41
2019-03-18T04:35:12.307Z,99705.41
2019-03-18T04:37:41.511Z,99704.70
2019-03-18T04:40:11.422Z,99704.92
2019-03-18T04:42:40.580Z,99702.77
2019-03-18T04:45:10.881Z,99702.88
2019-03-18T04:47:40.068Z,99705.92
2019-03-18T04:50:13.269Z,99704.28
2019-03-18T04:52:42.786Z,99707.33
2019-03-18T04:55:11.987Z,99702.36
2019-03-18T04:57:41.315Z,99700.02
2019-03-18T05:00:12.432Z,99704.28
2019-03-18T05:02:41.640Z,99703.70
2019-03-18T05:05:10.968Z,99698.62
2019-03-18T05:07:40.262Z,99704.06
2019-03-18T05:10:10.669Z,99692.72
2019-03-18T05:12:39.846Z,99697.95
2019-03-18T05:15:11.888Z,99701.06
2019-03-18T05:17:41.110Z,99693.42
2019-03-18T05:20:11.581Z,99700.65
2019-03-18T05:22:40.723Z,99704.31
2019-03-18T05:25:10.797Z,99705.30
2019-03-18T05:27:39.892Z,99707.95
2019-03-18T05:30:12.582Z,99708.91
2019-03-18T05:32:41.909Z,99716.26
2019-03-18T05:35:11.160Z,99712.13
2019-03-18T05:37:40.486Z,99722.45
2019-03-18T05:40:10.065Z,99721.38
2019-03-18T05:42:39.228Z,99717.98
2019-03-18T05:45:10.707Z,99717.50
2019-03-18T05:47:40.130Z,99718.67
2019-03-18T05:50:11.402Z,99712.53
2019-03-18T05:52:40.694Z,99714.89
2019-03-18T05:55:10.575Z,99723.75
2019-03-18T05:57:39.805Z,99727.08
2019-03-18T06:00:12.080Z,99734.89
2019-03-18T06:02:41.302Z,99725.78
2019-03-18T06:05:10.721Z,99726.97
2019-03-18T06:07:39.833Z,99731.94
2019-03-18T06:10:11.257Z,99728.94
2019-03-18T06:12:40.539Z,99727.97
2019-03-18T06:15:11.541Z,99735.52
2019-03-18T06:17:51.604Z,99734.91
2019-03-18T06:20:12.150Z,99744.11
2019-03-18T06:22:41.364Z,99744.35
2019-03-18T06:25:10.700Z,99747.03
2019-03-18T06:27:39.981Z,99747.02
2019-03-18T06:30:14.541Z,99748.56
2019-03-18T06:32:43.731Z,99746.53
2019-03-18T06:35:12.994Z,99745.06
2019-03-18T06:37:42.722Z,99744.71
2019-03-18T06:40:13.532Z,99745.59
2019-03-18T06:42:42.808Z,99746.68
2019-03-18T06:45:12.855Z,99742.48
2019-03-18T06:47:41.950Z,99741.47
2019-03-18T06:50:12.714Z,99734.98
2019-03-18T06:52:42.128Z,99749.45
2019-03-18T06:55:11.397Z,99747.45
2019-03-18T06:57:40.687Z,99746.98
2019-03-18T07:00:17.168Z,99746.81
2019-03-18T07:02:46.315Z,99747.28
2019-03-18T07:05:15.503Z,99744.34
2019-03-18T07:07:44.712Z,99747.20
2019-03-18T07:10:14.347Z,99738.93
2019-03-18T07:12:43.563Z,99739.59
2019-03-18T07:15:12.873Z,99738.75
2019-03-18T07:17:42.128Z,99741.80
2019-03-18T07:20:12.507Z,99737.87
2019-03-18T07:22:41.732Z,99741.84
2019-03-18T07:25:11.356Z,99735.41
2019-03-18T07:27:40.600Z,99743.92
2019-03-18T07:30:14.518Z,99738.86
2019-03-18T07:32:43.755Z,99743.61
2019-03-18T07:35:13.269Z,99763.33
2019-03-18T07:37:42.499Z,99767.24
2019-03-18T07:40:15.841Z,99764.29
2019-03-18T07:42:45.023Z,99776.99
2019-03-18T07:45:15.990Z,99775.39
2019-03-18T07:47:45.403Z,99773.13
2019-03-18T07:50:15.762Z,99778.62
2019-03-18T07:52:45.037Z,99781.38
2019-03-18T07:55:14.315Z,99782.47
2019-03-18T07:57:43.585Z,99779.59
2019-03-18T08:00:16.835Z,99782.69
2019-03-18T08:02:46.069Z,99783.62
2019-03-18T08:05:15.379Z,99781.82
2019-03-18T08:07:44.507Z,99781.80
2019-03-18T08:10:14.335Z,99780.39
2019-03-18T08:12:43.676Z,99778.55
2019-03-18T08:15:13.787Z,99769.80
2019-03-18T08:17:42.977Z,99762.67
2019-03-18T08:20:13.242Z,99764.81
2019-03-18T08:22:42.501Z,99769.28
2019-03-18T08:25:12.150Z,99769.72
2019-03-18T08:27:41.420Z,99769.05
2019-03-18T08:30:12.962Z,99769.01
2019-03-18T08:32:42.172Z,99766.84
2019-03-18T08:35:11.491Z,99757.47
2019-03-18T08:37:40.792Z,99753.20
2019-03-18T08:40:11.412Z,99749.97
2019-03-18T08:42:40.664Z,99751.34
2019-03-18T08:45:12.168Z,99746.52
2019-03-18T08:47:41.463Z,99750.00
2019-03-18T08:50:12.676Z,99745.08
2019-03-18T08:52:42.188Z,99750.06
2019-03-18T08:55:12.098Z,99741.98
2019-03-18T08:57:41.410Z,99748.38
2019-03-18T09:00:12.994Z,99746.25
2019-03-18T09:02:42.197Z,99750.86
2019-03-18T09:05:11.525Z,99749.98
2019-03-18T09:07:40.824Z,99743.23
2019-03-18T09:10:14.011Z,99740.49
2019-03-18T09:12:44.251Z,99745.35
2019-03-18T09:15:13.850Z,99735.63
2019-03-18T09:17:43.056Z,99738.06
2019-03-18T09:20:17.432Z,99743.67
2019-03-18T09:22:46.624Z,99735.64
2019-03-18T09:25:15.968Z,99728.72
2019-03-18T09:27:45.068Z,99732.58
2019-03-18T09:30:20.925Z,99726.98
2019-03-18T09:32:50.141Z,99730.00
2019-03-18T09:35:19.389Z,99723.07
2019-03-18T09:37:48.680Z,99713.84
2019-03-18T09:40:18.193Z,99714.38
2019-03-18T09:42:47.440Z,99714.86
2019-03-18T09:45:17.602Z,99710.58
2019-03-18T09:47:46.801Z,99707.09
2019-03-18T09:50:16.445Z,99709.16
2019-03-18T09:52:45.653Z,99707.20
2019-03-18T09:55:15.109Z,99705.86
2019-03-18T09:57:44.350Z,99707.50
2019-03-18T10:00:15.903Z,99701.89
2019-03-18T10:02:45.102Z,99695.03
2019-03-18T10:05:14.452Z,99699.91
2019-03-18T10:07:43.655Z,99699.34
2019-03-18T10:10:16.198Z,99696.58
2019-03-18T10:12:45.461Z,99692.27
2019-03-18T10:15:16.915Z,99696.31
2019-03-18T10:17:46.140Z,99697.14
2019-03-18T10:20:15.403Z,99700.03
2019-03-18T10:22:44.599Z,99693.77
2019-03-18T10:25:14.069Z,99686.81
2019-03-18T10:27:43.596Z,99688.08
2019-03-18T10:30:14.321Z,99691.58
2019-03-18T10:32:43.551Z,99694.13
2019-03-18T10:35:12.988Z,99692.35
2019-03-18T10:37:42.205Z,99691.23
2019-03-18T10:40:15.491Z,99688.63
2019-03-18T10:42:44.731Z,99682.87
2019-03-18T10:45:14.858Z,99682.87
2019-03-18T10:47:44.047Z,99680.72
2019-03-18T10:50:19.388Z,99681.51
2019-03-18T10:52:48.447Z,99686.53
2019-03-18T10:55:17.731Z,99673.86
2019-03-18T10:57:46.914Z,99677.89
2019-03-18T11:00:19.842Z,99667.03
2019-03-18T11:02:49.234Z,99665.13
2019-03-18T11:05:18.566Z,99669.39
2019-03-18T11:07:47.804Z,99668.16
2019-03-18T11:10:17.287Z,99664.52
2019-03-18T11:12:47.025Z,99663.75
2019-03-18T11:15:18.474Z,99654.98
2019-03-18T11:17:47.750Z,99652.32
2019-03-18T11:20:17.476Z,99648.17
2019-03-18T11:22:46.876Z,99644.82
2019-03-18T11:25:17.031Z,99636.46
2019-03-18T11:27:46.267Z,99643.45
2019-03-18T11:30:19.445Z,99634.53
2019-03-18T11:32:48.679Z,99633.38
2019-03-18T11:35:17.865Z,99634.44
2019-03-18T11:37:47.075Z,99631.50
2019-03-18T11:40:17.693Z,99635.42
2019-03-18T11:42:47.221Z,99630.84
2019-03-18T11:45:17.082Z,99618.98
2019-03-18T11:47:46.334Z,99625.41
2019-03-18T11:50:19.801Z,99609.67
2019-03-18T11:52:49.336Z,99615.23
2019-03-18T11:55:20.579Z,99610.76
2019-03-18T11:57:49.812Z,99610.89
2019-03-18T12:00:23.356Z,99610.36
2019-03-18T12:02:52.543Z,99605.05
2019-03-18T12:05:26.353Z,99602.58
2019-03-18T12:07:55.654Z,99592.25
2019-03-18T12:10:25.992Z,99596.29
2019-03-18T12:12:55.664Z,99593.09
2019-03-18T12:15:27.944Z,99589.23
2019-03-18T12:17:57.063Z,99587.31
2019-03-18T12:20:26.307Z,99587.89
2019-03-18T12:22:55.497Z,99582.12
2019-03-18T12:25:24.896Z,99574.70
2019-03-18T12:27:54.076Z,99570.53
2019-03-18T12:30:24.379Z,99569.80
2019-03-18T12:32:53.509Z,99570.02
2019-03-18T12:35:22.705Z,99557.47
2019-03-18T12:37:54.660Z,99557.63
2019-03-18T12:40:23.950Z,99548.36
2019-03-18T12:42:53.236Z,99549.20
2019-03-18T12:45:23.082Z,99544.13
2019-03-18T12:47:52.282Z,99539.36
2019-03-18T12:50:38.676Z,99540.09
2019-03-18T12:52:53.755Z,99532.56
2019-03-18T12:55:23.242Z,99527.72
2019-03-18T12:57:52.571Z,99517.89
2019-03-18T13:00:29.453Z,99518.59
2019-03-18T13:02:58.642Z,99515.80
2019-03-18T13:05:28.156Z,99513.02
2019-03-18T13:07:57.365Z,99515.79
2019-03-18T13:10:26.560Z,99516.28
2019-03-18T13:12:55.798Z,99499.47
2019-03-18T13:15:25.017Z,99496.48
2019-03-18T13:17:54.280Z,99497.13
2019-03-18T13:20:24.029Z,99502.03
2019-03-18T13:22:54.217Z,99498.03
2019-03-18T13:25:23.774Z,99504.45
2019-03-18T13:27:53.054Z,99504.59
2019-03-18T13:30:24.105Z,99508.53
2019-03-18T13:32:53.316Z,99505.30
2019-03-18T13:35:22.851Z,99503.24
2019-03-18T13:37:52.121Z,99502.88
2019-03-18T13:40:22.333Z,99503.01
2019-03-18T13:42:51.566Z,99499.96
2019-03-18T13:45:21.979Z,99494.45
2019-03-18T13:47:51.187Z,99494.94
2019-03-18T13:50:21.640Z,99489.59
2019-03-18T13:52:50.840Z,99496.31
2019-03-18T13:55:20.043Z,99487.02
2019-03-18T13:57:49.290Z,99482.14
2019-03-18T14:00:22.150Z,99478.77
2019-03-18T14:02:51.472Z,99479.69
2019-03-18T14:05:20.706Z,99487.45
2019-03-18T14:07:59.407Z,99485.14
2019-03-18T14:10:23.366Z,99479.80
2019-03-18T14:12:52.620Z,99482.84
2019-03-18T14:15:23.900Z,99485.47
2019-03-18T14:17:53.132Z,99481.38
2019-03-18T14:20:26.343Z,99475.27
2019-03-18T14:22:55.522Z,99474.09
2019-03-18T14:25:24.729Z,99471.91
2019-03-18T14:27:54.002Z,99474.07
2019-03-18T14:30:24.022Z,99477.36
2019-03-18T14:32:53.378Z,99471.55
2019-03-18T14:35:22.666Z,99475.44
2019-03-18T14:37:51.859Z,99470.80
2019-03-18T14:40:22.056Z,99470.72
2019-03-18T14:42:51.311Z,99474.47
2019-03-18T14:45:21.809Z,99469.34
2019-03-18T14:47:51.127Z,99476.43
2019-03-18T14:50:20.761Z,99475.39
2019-03-18T14:52:49.959Z,99476.93
2019-03-18T14:55:19.875Z,99477.77
2019-03-18T14:57:49.107Z,99483.60
2019-03-18T15:00:22.970Z,99477.98
2019-03-18T15:02:52.208Z,99476.14
2019-03-18T15:05:21.619Z,99482.61
2019-03-18T15:07:51.070Z,99474.95
2019-03-18T15:10:22.632Z,99475.50
2019-03-18T15:12:51.903Z,99475.41
2019-03-18T15:15:21.109Z,99483.27
2019-03-18T15:17:50.234Z,99484.02
2019-03-18T15:20:21.873Z,99499.98
2019-03-18T15:22:51.032Z,99498.47
2019-03-18T15:25:22.321Z,99496.95
2019-03-18T15:27:51.719Z,99517.91
2019-03-18T15:30:21.524Z,99516.91
2019-03-18T15:32:50.724Z,99520.73
2019-03-18T15:35:19.882Z,99523.92
2019-03-18T15:37:49.088Z,99531.19
2019-03-18T15:40:22.662Z,99543.66
2019-03-18T15:42:51.979Z,99536.58
2019-03-18T15:45:22.932Z,99541.11
2019-03-18T15:47:52.058Z,99536.15
2019-03-18T15:50:25.492Z,99548.23
2019-03-18T15:52:54.648Z,99555.94
2019-03-18T15:55:24.619Z,99565.41
2019-03-18T15:57:53.959Z,99569.84
2019-03-18T16:00:28.743Z,99570.87
2019-03-18T16:02:57.882Z,99582.71
2019-03-18T16:05:27.193Z,99588.83
2019-03-18T16:07:56.329Z,99592.33
2019-03-18T16:10:27.123Z,99606.46
2019-03-18T16:12:56.276Z,99606.53
2019-03-18T16:15:25.412Z,99612.27
2019-03-18T16:17:54.484Z,99616.11
2019-03-18T16:20:27.974Z,99628.44
2019-03-18T16:22:57.174Z,99635.41
2019-03-18T16:25:26.404Z,99634.67
2019-03-18T16:27:55.619Z,99634.63
2019-03-18T16:30:24.803Z,99647.41
2019-03-18T16:32:53.951Z,99647.45
2019-03-18T16:35:23.186Z,99655.53
2019-03-18T16:37:52.311Z,99663.17
2019-03-18T16:40:22.412Z,99672.95
2019-03-18T16:42:51.601Z,99677.69
2019-03-18T16:45:21.134Z,99697.83
2019-03-18T16:47:50.448Z,99694.69
2019-03-18T16:50:26.982Z,99705.89
2019-03-18T16:52:56.104Z,99718.80
2019-03-18T16:55:25.314Z,99727.25
2019-03-18T16:57:54.545Z,99733.74
2019-03-18T17:00:28.101Z,99752.15
2019-03-18T17:02:57.299Z,99770.17
2019-03-18T17:05:26.488Z,99764.34
2019-03-18T17:07:55.652Z,99769.16
2019-03-18T17:10:25.027Z,99785.69
2019-03-18T17:12:54.276Z,99788.02
2019-03-18T17:15:23.662Z,99791.04
2019-03-18T17:17:52.810Z,99801.16
2019-03-18T17:20:22.397Z,99800.73
2019-03-18T17:22:52.182Z,99816.16
2019-03-18T17:25:24.336Z,99819.43
2019-03-18T17:27:53.666Z,99815.17
2019-03-18T17:30:26.497Z,99827.27
2019-03-18T17:32:54.586Z,99838.64
2019-03-18T17:35:23.785Z,99835.72
2019-03-18T17:37:53.088Z,99863.91
2019-03-18T17:40:22.231Z,99863.09
2019-03-18T17:42:51.405Z,99883.58
2019-03-18T17:45:20.547Z,99883.81
2019-03-18T17:47:49.667Z,99892.80
2019-03-18T17:50:26.106Z,99894.34
2019-03-18T17:53:02.405Z,99895.29
2019-03-18T17:55:26.380Z,99912.44
2019-03-18T17:57:55.629Z,99912.19
2019-03-18T18:00:26.406Z,99925.34
2019-03-18T18:02:55.613Z,99923.08
2019-03-18T18:05:24.964Z,99932.87
2019-03-18T18:07:54.154Z,99945.86
2019-03-18T18:10:23.366Z,99953.08
2019-03-18T18:12:52.694Z,99972.45
2019-03-18T18:15:21.957Z,99988.14
2019-03-18T18:17:51.151Z,99996.76
2019-03-18T18:20:20.459Z,100000.52
2019-03-18T18:22:49.772Z,100013.66
2019-03-18T18:25:18.982Z,100020.94
2019-03-18T18:27:48.160Z,100030.84
2019-03-18T18:30:18.474Z,100037.08
2019-03-18T18:32:47.784Z,100049.36
2019-03-18T18:35:16.975Z,100041.38
2019-03-18T18:37:46.096Z,100046.84
2019-03-18T18:40:23.446Z,100044.00
2019-03-18T18:42:52.665Z,100052.66
2019-03-18T18:45:22.004Z,100075.45
2019-03-18T18:47:51.367Z,100091.02
2019-03-18T18:50:20.586Z,100087.94
2019-03-18T18:52:49.809Z,100095.66
2019-03-18T18:55:19.056Z,100102.92
2019-03-18T18:57:48.204Z,100106.09
2019-03-18T19:00:18.943Z,100112.77
2019-03-18T19:02:48.289Z,100122.86
2019-03-18T19:05:18.099Z,100118.34
2019-03-18T19:07:47.327Z,100134.41
2019-03-18T19:10:20.448Z,100134.98
2019-03-18T19:12:49.652Z,100147.23
2019-03-18T19:15:40.316Z,100149.35
2019-03-18T19:18:09.700Z,100150.11
2019-03-18T19:20:40.617Z,100158.27
2019-03-18T19:23:09.830Z,100167.34
2019-03-18T19:25:39.125Z,100166.98
2019-03-18T19:28:08.398Z,100178.75
2019-03-18T19:30:37.718Z,100180.22
2019-03-18T19:33:06.994Z,100188.18
2019-03-18T19:35:36.216Z,100181.52
2019-03-18T19:38:05.475Z,100188.91
2019-03-18T19:40:34.741Z,100203.71
2019-03-18T19:43:03.907Z,100202.50
2019-03-18T19:45:33.164Z,100210.26
2019-03-18T19:48:02.375Z,100212.29
2019-03-18T19:50:32.864Z,100223.22
2019-03-18T19:53:02.237Z,100225.98
2019-03-18T19:55:31.475Z,100232.16
2019-03-18T19:58:00.643Z,100232.59
2019-03-18T20:00:30.979Z,100207.88
2019-03-18T20:03:00.286Z,100237.71
2019-03-18T20:05:29.577Z,100234.59
2019-03-18T20:07:58.699Z,100243.48
2019-03-18T20:10:27.902Z,100241.98
2019-03-18T20:12:57.091Z,100254.09
2019-03-18T20:15:26.332Z,100259.70
2019-03-18T20:17:55.551Z,100253.58
2019-03-18T20:20:24.827Z,100259.88
2019-03-18T20:22:54.071Z,100267.17
2019-03-18T20:25:23.300Z,100269.02
2019-03-18T20:27:52.598Z,100268.17
2019-03-18T20:30:22.651Z,100280.94
2019-03-18T20:32:52.064Z,100276.88
2019-03-18T20:35:23.333Z,100303.75
2019-03-18T20:37:52.686Z,100300.39
2019-03-18T20:40:22.111Z,100312.17
2019-03-18T20:42:51.317Z,100308.77
2019-03-18T20:45:21.978Z,100307.94
2019-03-18T20:47:51.098Z,100314.44
2019-03-18T20:50:25.274Z,100309.81
2019-03-18T20:52:54.512Z,100314.52
2019-03-18T20:55:23.863Z,100323.47
2019-03-18T20:57:53.185Z,100342.89
2019-03-18T21:00:24.464Z,100355.91
2019-03-18T21:02:53.884Z,100356.58
2019-03-18T21:05:25.099Z,100351.20
2019-03-18T21:07:54.053Z,100336.67
2019-03-18T21:10:23.266Z,100353.56
2019-03-18T21:12:52.475Z,100350.75
2019-03-18T21:15:21.778Z,100349.43
2019-03-18T21:17:51.054Z,100349.90
2019-03-18T21:20:28.234Z,100350.64
2019-03-18T21:22:57.490Z,100352.41
2019-03-18T21:25:26.667Z,100344.38
2019-03-18T21:27:55.834Z,100348.70
2019-03-18T21:30:25.092Z,100355.70
2019-03-18T21:32:54.438Z,100351.00
2019-03-18T21:35:23.580Z,100353.12
2019-03-18T21:37:52.647Z,100353.04
2019-03-18T21:40:22.395Z,100345.28
2019-03-18T21:42:51.532Z,100348.33
2019-03-18T21:45:23.439Z,100364.97
2019-03-18T21:47:53.192Z,100363.91
2019-03-18T21:50:22.496Z,100370.59
2019-03-18T21:52:51.706Z,100373.94
2019-03-18T21:55:20.906Z,100387.61
2019-03-18T21:57:50.316Z,100383.66
2019-03-18T22:00:20.747Z,100387.39
2019-03-18T22:02:50.162Z,100394.70
2019-03-18T22:05:19.444Z,100394.78
2019-03-18T22:07:48.766Z,100404.72
2019-03-18T22:10:21.825Z,100404.33
2019-03-18T22:12:51.083Z,100403.50
2019-03-18T22:15:20.333Z,100410.79
2019-03-18T22:17:49.538Z,100388.75
2019-03-18T22:20:19.795Z,100421.84
2019-03-18T22:22:48.969Z,100409.81
2019-03-18T22:25:18.123Z,100424.42
2019-03-18T22:27:47.361Z,100421.91
2019-03-18T22:30:19.927Z,100420.55
2019-03-18T22:32:49.243Z,100419.69
2019-03-18T22:35:18.484Z,100423.41
2019-03-18T22:37:47.681Z,100413.16
2019-03-18T22:40:17.847Z,100413.16
2019-03-18T22:42:47.073Z,100412.87
2019-03-18T22:45:17.287Z,100431.88
2019-03-18T22:47:46.570Z,100426.02
2019-03-18T22:50:17.500Z,100440.59
2019-03-18T22:52:46.731Z,100440.20
2019-03-18T22:55:16.128Z,100441.67
2019-03-18T22:57:45.357Z,100440.91
2019-03-18T23:00:34.980Z,100433.45
2019-03-18T23:03:04.718Z,100433.45
2019-03-18T23:05:33.923Z,100440.37
2019-03-18T23:08:03.434Z,100448.28
2019-03-18T23:10:33.203Z,100452.69
2019-03-18T23:13:02.464Z,100453.45
2019-03-18T23:15:31.669Z,100460.80
2019-03-18T23:18:00.913Z,100458.44
2019-03-18T23:20:30.090Z,100453.89
2019-03-18T23:22:59.228Z,100454.89
2019-03-18T23:25:28.389Z,100455.64
2019-03-18T23:27:57.516Z,100453.05
2019-03-18T23:30:26.720Z,100451.01
2019-03-18T23:32:55.954Z,100456.93
2019-03-18T23:35:25.218Z,100452.84
2019-03-18T23:37:54.533Z,100461.34
2019-03-18T23:40:23.764Z,100456.93
2019-03-18T23:42:53.054Z,100460.37
2019-03-18T23:45:22.246Z,100459.23
2019-03-18T23:47:52.354Z,100459.66
2019-03-18T23:50:21.470Z,100456.50
2019-03-18T23:52:50.681Z,100453.84
2019-03-18T23:55:20.203Z,100452.62
2019-03-18T23:57:49.673Z,100451.77
